Time;durP1;ratioP1;P1;durP2;ratioP2;P2;SDS_P1;SDS_P2;PMS_P1;PMS_P2;Temp;Humidity;BMP_temperature;BMP_pressure;BME280_temperature;BME280_humidity;BME280_pressure;Samples;Min_cycle;Max_cycle;Signal;HPM_P1;HPM_P2
2022/11/18 00:00:51;;;;;;;5.70;2.70;;;;;;;;;;5014591;28;20183;-81
2022/11/18 00:03:16;;;;;;;9.50;3.43;;;;;;;;;;4996562;28;20187;-80
2022/11/18 00:05:42;;;;;;;5.63;2.73;;;;;;;;;;5009699;28;20258;-80
2022/11/18 00:08:07;;;;;;;3.77;2.37;;;;;;;;;;4992242;28;20580;-80
2022/11/18 00:10:32;;;;;;;3.57;2.67;;;;;;;;;;4998125;28;20249;-80
2022/11/18 00:15:41;;;;;;;4.57;2.47;;;;;;;;;;5012075;28;20221;-80
2022/11/18 00:18:06;;;;;;;4.10;2.83;;;;;;;;;;5011526;28;20588;-80
2022/11/18 00:20:32;;;;;;;4.87;2.53;;;;;;;;;;4997907;28;20175;-80
2022/11/18 00:22:57;;;;;;;3.50;2.30;;;;;;;;;;4991259;28;20186;-81
2022/11/18 00:25:23;;;;;;;6.50;2.77;;;;;;;;;;4997329;28;20191;-80
2022/11/18 00:27:48;;;;;;;3.10;2.50;;;;;;;;;;4996901;28;20191;-81
2022/11/18 00:30:13;;;;;;;4.57;2.67;;;;;;;;;;5014129;28;20193;-80
2022/11/18 00:32:38;;;;;;;5.60;2.43;;;;;;;;;;4994452;28;20175;-80
2022/11/18 00:35:04;;;;;;;4.60;3.03;;;;;;;;;;5014151;28;20226;-81
2022/11/18 00:37:29;;;;;;;3.80;1.97;;;;;;;;;;4996604;28;20284;-79
2022/11/18 00:39:54;;;;;;;5.57;2.90;;;;;;;;;;5013855;28;20175;-80
2022/11/18 00:45:03;;;;;;;5.27;2.67;;;;;;;;;;5007390;28;20368;-80
2022/11/18 00:47:28;;;;;;;3.63;2.43;;;;;;;;;;5005359;28;20691;-80
2022/11/18 00:49:53;;;;;;;4.50;2.60;;;;;;;;;;4995359;28;20622;-80
2022/11/18 00:52:19;;;;;;;4.73;2.40;;;;;;;;;;5013235;28;20218;-80
2022/11/18 00:54:44;;;;;;;4.33;2.10;;;;;;;;;;5013484;28;20199;-80
2022/11/18 00:57:09;;;;;;;5.33;2.47;;;;;;;;;;4996557;28;20206;-81
2022/11/18 00:59:34;;;;;;;3.83;2.10;;;;;;;;;;4996707;28;20210;-80
2022/11/18 01:01:59;;;;;;;4.30;2.30;;;;;;;;;;5010460;28;20263;-80
2022/11/18 01:04:25;;;;;;;5.03;2.87;;;;;;;;;;5013045;28;20191;-80
2022/11/18 01:06:50;;;;;;;4.80;2.30;;;;;;;;;;5016745;28;20257;-80
2022/11/18 01:09:15;;;;;;;3.83;2.47;;;;;;;;;;5014298;28;20676;-80
2022/11/18 01:14:24;;;;;;;5.03;2.70;;;;;;;;;;5016606;28;20237;-80
2022/11/18 01:16:52;;;;;;;6.03;3.10;;;;;;;;;;4998514;28;20289;-79
2022/11/18 01:19:18;;;;;;;8.03;2.97;;;;;;;;;;4999351;28;20187;-79
2022/11/18 01:21:43;;;;;;;5.07;2.60;;;;;;;;;;4995712;28;20183;-80
2022/11/18 01:24:08;;;;;;;5.83;3.17;;;;;;;;;;4997890;28;20196;-80
2022/11/18 01:26:33;;;;;;;4.60;2.53;;;;;;;;;;5006681;28;20226;-79
2022/11/18 01:28:58;;;;;;;5.00;3.10;;;;;;;;;;5018040;28;20195;-79
2022/11/18 01:31:24;;;;;;;5.73;3.00;;;;;;;;;;5016841;28;20179;-79
2022/11/18 01:33:49;;;;;;;4.87;2.77;;;;;;;;;;5016303;28;20214;-80
2022/11/18 01:36:22;;;;;;;4.30;2.57;;;;;;;;;;5000039;28;20248;-80
2022/11/18 01:38:47;;;;;;;5.83;2.80;;;;;;;;;;5007987;28;20179;-79
2022/11/18 01:41:13;;;;;;;6.10;3.27;;;;;;;;;;4996488;28;20190;-80
2022/11/18 01:43:52;;;;;;;9.43;3.40;;;;;;;;;;5021677;28;20440;-79
2022/11/18 01:46:17;;;;;;;5.30;3.00;;;;;;;;;;5014254;28;20222;-79
2022/11/18 01:48:43;;;;;;;5.83;3.30;;;;;;;;;;4998432;28;20202;-80
2022/11/18 01:51:11;;;;;;;4.97;2.80;;;;;;;;;;5014330;28;20186;-80
2022/11/18 01:53:41;;;;;;;4.90;2.77;;;;;;;;;;5015362;28;20207;-80
2022/11/18 01:56:09;;;;;;;5.50;3.23;;;;;;;;;;4990541;28;20258;-80
2022/11/18 01:58:36;;;;;;;7.80;3.10;;;;;;;;;;4997361;28;20202;-80
2022/11/18 02:01:03;;;;;;;6.07;3.70;;;;;;;;;;5014467;28;20191;-81
2022/11/18 02:03:28;;;;;;;6.83;3.13;;;;;;;;;;5009745;28;20265;-80
2022/11/18 02:05:53;;;;;;;7.60;3.23;;;;;;;;;;4996976;28;20230;-78
2022/11/18 02:08:20;;;;;;;5.40;3.17;;;;;;;;;;5014281;28;20183;-79
2022/11/18 02:10:45;;;;;;;5.57;3.23;;;;;;;;;;4996930;28;20178;-80
2022/11/18 02:13:11;;;;;;;8.13;3.23;;;;;;;;;;4991484;28;20597;-80
2022/11/18 02:15:44;;;;;;;4.53;3.23;;;;;;;;;;5013121;28;20186;-81
2022/11/18 02:18:16;;;;;;;6.50;3.07;;;;;;;;;;5011505;28;20261;-80
2022/11/18 02:20:43;;;;;;;6.33;4.00;;;;;;;;;;5011431;28;20175;-79
2022/11/18 02:23:15;;;;;;;7.83;3.53;;;;;;;;;;4996762;28;20265;-79
2022/11/18 02:25:43;;;;;;;6.33;3.00;;;;;;;;;;5013516;28;20175;-80
2022/11/18 02:28:29;;;;;;;5.07;3.20;;;;;;;;;;4993390;28;20240;-80
2022/11/18 02:30:59;;;;;;;4.00;3.47;;;;;;;;;;5004425;28;20217;-80
2022/11/18 02:33:33;;;;;;;6.00;4.00;;;;;;;;;;5017172;28;20210;-79
2022/11/18 02:36:07;;;;;;;5.40;3.27;;;;;;;;;;5018655;28;20277;-80
2022/11/18 02:38:36;;;;;;;7.93;4.03;;;;;;;;;;5016716;28;20174;-80
2022/11/18 02:41:04;;;;;;;10.30;3.70;;;;;;;;;;5017438;28;20202;-80
2022/11/18 02:43:35;;;;;;;8.83;4.00;;;;;;;;;;5001413;28;20210;-79
2022/11/18 02:46:02;;;;;;;11.40;4.50;;;;;;;;;;4999449;28;20256;-80
2022/11/18 02:48:29;;;;;;;9.50;3.80;;;;;;;;;;5012285;28;20179;-80
2022/11/18 02:50:56;;;;;;;6.47;3.73;;;;;;;;;;4997807;28;20282;-80
2022/11/18 02:53:23;;;;;;;9.27;4.20;;;;;;;;;;5008328;28;20203;-81
2022/11/18 02:55:48;;;;;;;5.37;3.57;;;;;;;;;;5017431;28;20267;-79
2022/11/18 02:58:15;;;;;;;9.97;3.80;;;;;;;;;;4997898;28;20182;-81
2022/11/18 03:00:40;;;;;;;7.67;3.73;;;;;;;;;;5014152;28;20175;-79
2022/11/18 03:03:24;;;;;;;7.37;3.80;;;;;;;;;;5023137;28;20432;-80
2022/11/18 03:05:59;;;;;;;7.10;3.50;;;;;;;;;;5028691;28;20219;-80
2022/11/18 03:08:28;;;;;;;13.83;4.57;;;;;;;;;;5013837;28;20278;-81
2022/11/18 03:11:10;;;;;;;8.40;4.27;;;;;;;;;;5009824;28;20187;-81
2022/11/18 03:14:11;;;;;;;9.47;4.03;;;;;;;;;;5004128;28;20206;-80
2022/11/18 03:16:39;;;;;;;8.30;4.30;;;;;;;;;;4968580;28;20208;-80
2022/11/18 03:19:10;;;;;;;5.90;3.60;;;;;;;;;;5012982;28;20195;-79
2022/11/18 03:21:37;;;;;;;10.60;4.77;;;;;;;;;;5025909;28;20175;-79
2022/11/18 03:24:08;;;;;;;7.43;4.87;;;;;;;;;;5026552;28;20190;-79
2022/11/18 03:26:39;;;;;;;7.00;3.87;;;;;;;;;;5024014;28;20218;-80
2022/11/18 03:29:09;;;;;;;8.77;4.00;;;;;;;;;;5021875;28;20171;-80
2022/11/18 03:31:37;;;;;;;6.27;4.00;;;;;;;;;;5020694;28;20202;-79
2022/11/18 03:34:05;;;;;;;11.07;4.10;;;;;;;;;;5019293;28;20242;-80
2022/11/18 03:36:32;;;;;;;5.43;3.50;;;;;;;;;;5022995;28;20229;-79
2022/11/18 03:38:59;;;;;;;15.90;5.87;;;;;;;;;;5000834;28;20172;-80
2022/11/18 03:41:27;;;;;;;8.80;4.40;;;;;;;;;;5003021;28;20229;-80
2022/11/18 03:44:02;;;;;;;7.73;4.93;;;;;;;;;;5020662;28;20179;-80
2022/11/18 03:46:30;;;;;;;7.00;4.37;;;;;;;;;;5003695;28;20202;-80
2022/11/18 03:48:56;;;;;;;8.73;4.03;;;;;;;;;;5021664;28;20182;-80
2022/11/18 03:51:30;;;;;;;5.77;3.87;;;;;;;;;;5018462;28;20186;-80
2022/11/18 03:54:05;;;;;;;12.80;5.40;;;;;;;;;;5020613;28;20199;-80
2022/11/18 03:56:33;;;;;;;11.17;4.30;;;;;;;;;;5021718;28;20549;-80
2022/11/18 03:59:02;;;;;;;8.43;4.27;;;;;;;;;;4995778;28;20187;-80
2022/11/18 04:01:34;;;;;;;8.87;4.70;;;;;;;;;;5017917;28;20183;-79
2022/11/18 04:04:00;;;;;;;12.80;4.20;;;;;;;;;;5019819;28;20189;-79
2022/11/18 04:06:44;;;;;;;10.50;4.80;;;;;;;;;;4999327;28;20203;-80
2022/11/18 04:09:15;;;;;;;9.57;4.83;;;;;;;;;;5007188;28;20186;-80
2022/11/18 04:12:02;;;;;;;8.07;4.57;;;;;;;;;;5024879;28;20214;-79
2022/11/18 04:14:38;;;;;;;9.43;3.93;;;;;;;;;;5021662;28;20198;-80
2022/11/18 04:17:10;;;;;;;7.10;4.10;;;;;;;;;;5012984;28;20238;-79
2022/11/18 04:19:36;;;;;;;11.33;5.30;;;;;;;;;;5017519;28;20198;-79
2022/11/18 04:22:01;;;;;;;7.10;4.10;;;;;;;;;;5040093;28;20242;-79
2022/11/18 04:24:26;;;;;;;7.10;4.57;;;;;;;;;;5041981;28;20162;-79
2022/11/18 04:26:51;;;;;;;9.37;4.40;;;;;;;;;;5035182;28;20211;-79
2022/11/18 04:29:16;;;;;;;7.43;3.93;;;;;;;;;;5023588;28;20179;-79
2022/11/18 04:31:42;;;;;;;9.33;3.97;;;;;;;;;;5038421;28;20167;-79
2022/11/18 04:34:07;;;;;;;10.53;5.30;;;;;;;;;;5020994;28;20227;-79
2022/11/18 04:36:32;;;;;;;10.40;5.00;;;;;;;;;;5033583;28;20203;-79
2022/11/18 04:38:57;;;;;;;7.53;4.10;;;;;;;;;;5034142;28;20175;-79
2022/11/18 04:41:54;;;;;;;5.50;4.40;;;;;;;;;;5034590;28;20190;-79
2022/11/18 04:44:11;;;;;;;10.97;4.57;;;;;;;;;;5043797;28;20230;-78
2022/11/18 04:46:37;;;;;;;9.30;4.97;;;;;;;;;;5036005;28;20202;-79
2022/11/18 04:49:02;;;;;;;7.93;4.37;;;;;;;;;;5035533;28;20179;-80
2022/11/18 04:51:27;;;;;;;7.90;4.33;;;;;;;;;;5028445;28;20179;-80
2022/11/18 04:53:52;;;;;;;7.13;4.07;;;;;;;;;;5004843;28;20206;-80
2022/11/18 04:56:17;;;;;;;5.43;3.57;;;;;;;;;;5023352;28;20205;-79
2022/11/18 04:58:43;;;;;;;9.20;4.23;;;;;;;;;;5029812;28;20609;-80
2022/11/18 05:01:08;;;;;;;11.17;4.20;;;;;;;;;;5016664;28;20186;-80
2022/11/18 05:03:33;;;;;;;9.43;3.97;;;;;;;;;;5017792;28;20214;-80
2022/11/18 05:06:00;;;;;;;8.57;4.60;;;;;;;;;;5023428;28;20683;-80
2022/11/18 05:08:25;;;;;;;12.57;4.73;;;;;;;;;;5022340;28;20198;-81
2022/11/18 05:10:50;;;;;;;7.30;4.03;;;;;;;;;;5019752;28;20186;-80
2022/11/18 05:13:15;;;;;;;7.20;4.47;;;;;;;;;;5004801;28;20190;-80
2022/11/18 05:15:40;;;;;;;6.70;4.33;;;;;;;;;;5022476;28;20236;-80
2022/11/18 05:18:08;;;;;;;8.80;4.90;;;;;;;;;;5005663;28;20205;-80
2022/11/18 05:20:36;;;;;;;9.67;5.37;;;;;;;;;;5002617;28;20216;-80
2022/11/18 05:23:01;;;;;;;11.70;5.17;;;;;;;;;;4998178;28;20218;-80
2022/11/18 05:25:26;;;;;;;8.97;4.50;;;;;;;;;;5017130;28;20567;-80
2022/11/18 05:27:51;;;;;;;9.50;4.10;;;;;;;;;;5015871;28;20198;-80
2022/11/18 05:30:16;;;;;;;10.13;5.07;;;;;;;;;;5012045;28;20182;-80
2022/11/18 05:32:41;;;;;;;10.20;5.60;;;;;;;;;;5019442;28;20565;-80
2022/11/18 05:35:07;;;;;;;7.47;4.40;;;;;;;;;;5013852;28;20203;-80
2022/11/18 05:37:32;;;;;;;7.30;4.47;;;;;;;;;;5012203;28;20210;-79
2022/11/18 05:39:57;;;;;;;7.63;5.53;;;;;;;;;;5012918;28;20173;-79
2022/11/18 05:45:07;;;;;;;7.70;4.10;;;;;;;;;;5022532;28;20213;-79
2022/11/18 05:47:58;;;;;;;7.57;4.37;;;;;;;;;;5004739;28;20226;-79
2022/11/18 05:50:17;;;;;;;9.37;4.60;;;;;;;;;;5021909;28;20189;-79
2022/11/18 05:52:42;;;;;;;6.30;4.50;;;;;;;;;;5021324;28;20234;-80
2022/11/18 05:55:09;;;;;;;12.70;4.60;;;;;;;;;;5022956;28;20614;-79
2022/11/18 05:57:34;;;;;;;9.27;4.60;;;;;;;;;;5005312;28;20218;-80
2022/11/18 05:59:59;;;;;;;9.33;4.70;;;;;;;;;;5022496;28;20175;-80
2022/11/18 06:02:24;;;;;;;8.73;3.87;;;;;;;;;;5015243;28;20210;-79
2022/11/18 06:04:55;;;;;;;11.57;4.93;;;;;;;;;;5019641;28;20180;-80
2022/11/18 06:07:24;;;;;;;6.20;4.13;;;;;;;;;;5004157;28;20297;-80
2022/11/18 06:09:52;;;;;;;7.87;4.40;;;;;;;;;;5018666;28;20193;-79
2022/11/18 06:12:20;;;;;;;6.93;4.10;;;;;;;;;;5002767;28;20712;-80
2022/11/18 06:14:48;;;;;;;8.17;4.30;;;;;;;;;;5025422;28;20226;-79
2022/11/18 06:17:15;;;;;;;7.80;5.00;;;;;;;;;;5024435;28;20245;-80
2022/11/18 06:19:40;;;;;;;8.03;4.07;;;;;;;;;;5025674;28;20179;-80
2022/11/18 06:22:06;;;;;;;8.87;4.10;;;;;;;;;;5026652;28;20616;-80
2022/11/18 06:24:32;;;;;;;6.20;3.83;;;;;;;;;;5012867;28;20661;-79
2022/11/18 06:26:57;;;;;;;8.20;4.50;;;;;;;;;;5022027;28;20270;-79
2022/11/18 06:29:23;;;;;;;8.43;4.87;;;;;;;;;;5014851;28;20321;-79
2022/11/18 06:31:48;;;;;;;9.43;5.10;;;;;;;;;;5001035;28;20187;-80
2022/11/18 06:34:13;;;;;;;9.93;4.40;;;;;;;;;;5026955;28;20207;-79
2022/11/18 06:36:39;;;;;;;8.90;6.53;;;;;;;;;;5009729;28;20199;-80
2022/11/18 06:39:04;;;;;;;8.90;4.53;;;;;;;;;;5026123;28;20180;-80
2022/11/18 06:41:30;;;;;;;7.37;4.33;;;;;;;;;;5008050;28;20254;-79
2022/11/18 06:43:55;;;;;;;5.53;3.77;;;;;;;;;;5027180;28;20176;-79
2022/11/18 06:49:04;;;;;;;7.53;4.30;;;;;;;;;;5024787;28;20193;-79
2022/11/18 06:51:29;;;;;;;6.33;3.90;;;;;;;;;;5024838;28;20175;-79
2022/11/18 06:53:54;;;;;;;7.60;4.40;;;;;;;;;;5008834;28;20229;-80
2022/11/18 06:56:21;;;;;;;10.80;4.33;;;;;;;;;;5023663;28;20199;-79
2022/11/18 06:58:46;;;;;;;6.23;4.23;;;;;;;;;;5024216;28;20270;-79
2022/11/18 07:01:13;;;;;;;8.90;4.83;;;;;;;;;;5016527;28;20202;-79
2022/11/18 07:03:42;;;;;;;9.07;4.50;;;;;;;;;;5004226;28;20182;-79
2022/11/18 07:06:08;;;;;;;13.07;4.83;;;;;;;;;;5024325;28;20715;-80
2022/11/18 07:08:34;;;;;;;11.27;4.83;;;;;;;;;;5010519;28;20183;-79
2022/11/18 07:11:00;;;;;;;6.30;4.20;;;;;;;;;;5028557;28;20618;-80
2022/11/18 07:13:25;;;;;;;9.23;4.60;;;;;;;;;;5006358;28;20179;-81
2022/11/18 07:15:50;;;;;;;11.47;4.67;;;;;;;;;;5008875;28;20207;-80
2022/11/18 07:18:16;;;;;;;8.70;4.53;;;;;;;;;;5006473;28;20183;-82
2022/11/18 07:20:41;;;;;;;9.90;4.57;;;;;;;;;;4998016;28;20830;-80
2022/11/18 07:23:06;;;;;;;6.77;4.23;;;;;;;;;;5000236;28;20649;-80
2022/11/18 07:25:31;;;;;;;7.03;4.80;;;;;;;;;;5000869;28;20170;-82
2022/11/18 07:27:57;;;;;;;14.30;5.13;;;;;;;;;;5016319;28;20196;-83
2022/11/18 07:30:22;;;;;;;8.73;4.73;;;;;;;;;;5003758;28;20587;-82
2022/11/18 07:32:47;;;;;;;8.67;4.50;;;;;;;;;;5013924;28;20584;-81
2022/11/18 07:35:13;;;;;;;11.93;5.13;;;;;;;;;;5015107;28;20211;-81
2022/11/18 07:37:38;;;;;;;10.33;5.10;;;;;;;;;;5016654;28;20622;-81
2022/11/18 07:40:03;;;;;;;12.27;6.40;;;;;;;;;;5015001;28;20175;-81
2022/11/18 07:42:41;;;;;;;9.93;5.50;;;;;;;;;;4997087;28;20537;-81
2022/11/18 07:45:06;;;;;;;12.60;5.87;;;;;;;;;;5005739;28;20637;-81
2022/11/18 07:47:33;;;;;;;10.40;5.47;;;;;;;;;;5013839;28;20210;-81
2022/11/18 07:49:58;;;;;;;11.50;4.87;;;;;;;;;;4982545;28;20184;-82
2022/11/18 07:52:23;;;;;;;11.77;5.50;;;;;;;;;;4994943;28;20213;-82
2022/11/18 07:54:48;;;;;;;11.93;4.70;;;;;;;;;;4997246;28;20277;-81
2022/11/18 07:57:13;;;;;;;8.20;5.57;;;;;;;;;;5014980;28;20201;-82
2022/11/18 07:59:39;;;;;;;9.73;5.20;;;;;;;;;;4997226;28;20652;-81
2022/11/18 08:02:05;;;;;;;7.37;5.40;;;;;;;;;;4997039;28;20206;-81
2022/11/18 08:04:30;;;;;;;9.57;4.70;;;;;;;;;;5016119;28;20175;-82
2022/11/18 08:06:55;;;;;;;11.00;4.53;;;;;;;;;;5015447;28;20245;-82
2022/11/18 08:09:21;;;;;;;6.10;4.60;;;;;;;;;;5014992;28;20179;-82
2022/11/18 08:11:46;;;;;;;9.40;5.57;;;;;;;;;;4997512;28;20183;-82
2022/11/18 08:14:11;;;;;;;10.37;5.17;;;;;;;;;;5005385;28;20206;-82
2022/11/18 08:16:36;;;;;;;5.93;4.17;;;;;;;;;;5009025;28;20211;-81
2022/11/18 08:19:02;;;;;;;10.50;5.00;;;;;;;;;;5013582;28;20175;-81
2022/11/18 08:21:27;;;;;;;8.50;5.23;;;;;;;;;;4998798;28;20220;-82
2022/11/18 08:23:53;;;;;;;13.80;5.77;;;;;;;;;;5015565;28;20695;-81
2022/11/18 08:26:19;;;;;;;10.40;5.10;;;;;;;;;;5016387;28;20207;-81
2022/11/18 08:28:45;;;;;;;10.07;4.53;;;;;;;;;;5019004;28;20213;-82
2022/11/18 08:31:11;;;;;;;10.63;4.67;;;;;;;;;;5000003;28;20180;-82
2022/11/18 08:33:36;;;;;;;9.30;5.77;;;;;;;;;;5017830;28;20207;-82
2022/11/18 08:36:09;;;;;;;11.67;5.17;;;;;;;;;;5000995;28;20274;-82
2022/11/18 08:38:34;;;;;;;8.03;5.63;;;;;;;;;;5000901;28;20182;-82
2022/11/18 08:40:59;;;;;;;6.40;5.07;;;;;;;;;;5007949;28;20298;-82
2022/11/18 08:43:25;;;;;;;7.87;4.87;;;;;;;;;;5014876;28;20583;-81
2022/11/18 08:45:50;;;;;;;12.17;5.97;;;;;;;;;;5014003;28;20199;-81
2022/11/18 08:48:15;;;;;;;7.10;4.57;;;;;;;;;;5020506;28;20182;-81
2022/11/18 08:50:40;;;;;;;12.63;5.30;;;;;;;;;;5011957;28;20637;-81
2022/11/18 08:53:05;;;;;;;9.90;5.10;;;;;;;;;;5018461;28;20262;-80
2022/11/18 08:55:30;;;;;;;7.17;4.50;;;;;;;;;;5014335;28;20209;-81
2022/11/18 08:57:56;;;;;;;11.77;4.80;;;;;;;;;;5011939;28;20660;-81
2022/11/18 09:00:21;;;;;;;8.00;5.30;;;;;;;;;;5015712;28;20186;-81
2022/11/18 09:02:46;;;;;;;8.87;5.97;;;;;;;;;;5018208;28;20175;-81
2022/11/18 09:05:11;;;;;;;10.03;5.30;;;;;;;;;;5019090;28;20599;-81
2022/11/18 09:07:36;;;;;;;7.37;5.17;;;;;;;;;;5015153;28;20234;-80
2022/11/18 09:10:02;;;;;;;8.67;5.57;;;;;;;;;;5014787;28;20206;-81
2022/11/18 09:12:27;;;;;;;11.57;5.47;;;;;;;;;;5008919;28;20191;-81
2022/11/18 09:14:52;;;;;;;11.17;5.50;;;;;;;;;;4997052;28;20238;-81
2022/11/18 09:17:18;;;;;;;6.50;4.77;;;;;;;;;;5015258;28;20239;-81
2022/11/18 09:19:44;;;;;;;6.40;4.17;;;;;;;;;;5017604;28;20175;-81
2022/11/18 09:22:09;;;;;;;6.37;4.63;;;;;;;;;;5012716;28;20178;-82
2022/11/18 09:24:34;;;;;;;10.20;4.20;;;;;;;;;;4991518;28;20665;-81
2022/11/18 09:27:04;;;;;;;8.20;4.63;;;;;;;;;;5000661;28;20218;-80
2022/11/18 09:29:29;;;;;;;4.17;3.20;;;;;;;;;;5016948;28;20181;-81
2022/11/18 09:31:54;;;;;;;6.77;4.23;;;;;;;;;;4998516;28;20628;-81
2022/11/18 09:34:20;;;;;;;11.63;3.87;;;;;;;;;;4986201;28;20202;-80
2022/11/18 09:36:45;;;;;;;7.47;3.00;;;;;;;;;;5013388;28;20722;-81
2022/11/18 09:39:10;;;;;;;9.47;3.43;;;;;;;;;;5009453;28;20692;-80
2022/11/18 09:41:54;;;;;;;5.50;3.57;;;;;;;;;;5013942;28;20262;-80
2022/11/18 09:44:22;;;;;;;6.20;3.67;;;;;;;;;;5013535;28;20185;-81
2022/11/18 09:47:06;;;;;;;5.80;3.03;;;;;;;;;;5010071;28;20202;-80
2022/11/18 09:49:37;;;;;;;6.60;3.43;;;;;;;;;;5002867;28;20183;-81
2022/11/18 09:52:23;;;;;;;6.70;3.03;;;;;;;;;;5027002;28;20193;-79
2022/11/18 09:54:48;;;;;;;6.73;3.47;;;;;;;;;;5004294;28;20242;-81
2022/11/18 09:57:15;;;;;;;3.70;2.90;;;;;;;;;;5017895;28;20252;-80
2022/11/18 09:59:41;;;;;;;5.60;3.10;;;;;;;;;;4987821;28;20175;-80
2022/11/18 10:02:12;;;;;;;5.67;3.43;;;;;;;;;;5013034;28;20175;-80
2022/11/18 10:04:37;;;;;;;6.57;4.37;;;;;;;;;;5011220;28;20189;-80
2022/11/18 10:07:05;;;;;;;6.47;2.90;;;;;;;;;;5010858;28;20303;-80
2022/11/18 10:09:39;;;;;;;5.63;3.17;;;;;;;;;;5016873;28;20253;-81
2022/11/18 10:12:15;;;;;;;6.33;3.30;;;;;;;;;;4993756;28;20184;-80
2022/11/18 10:15:00;;;;;;;7.00;3.00;;;;;;;;;;4995054;28;20214;-80
2022/11/18 10:17:28;;;;;;;9.60;3.23;;;;;;;;;;5012221;28;20203;-80
2022/11/18 10:20:07;;;;;;;8.17;3.40;;;;;;;;;;4999772;28;20178;-80
2022/11/18 10:22:42;;;;;;;10.80;3.60;;;;;;;;;;5008041;28;20178;-80
2022/11/18 10:25:14;;;;;;;6.97;3.27;;;;;;;;;;5014979;28;20175;-80
2022/11/18 10:27:40;;;;;;;4.57;2.83;;;;;;;;;;5012160;28;20207;-81
2022/11/18 10:30:16;;;;;;;4.63;3.07;;;;;;;;;;5016061;28;20226;-80
2022/11/18 10:32:54;;;;;;;6.77;3.17;;;;;;;;;;4997345;28;20182;-80
2022/11/18 10:35:24;;;;;;;4.20;3.00;;;;;;;;;;5011755;28;20203;-80
2022/11/18 10:38:00;;;;;;;6.33;3.47;;;;;;;;;;4986039;28;20180;-79
2022/11/18 10:40:26;;;;;;;7.73;3.60;;;;;;;;;;4994040;28;20263;-80
2022/11/18 10:42:51;;;;;;;15.70;3.33;;;;;;;;;;5015210;28;20183;-80
2022/11/18 10:45:16;;;;;;;4.00;2.87;;;;;;;;;;4997941;28;20190;-81
2022/11/18 10:47:42;;;;;;;7.90;2.80;;;;;;;;;;5018322;28;20190;-81
2022/11/18 10:50:26;;;;;;;6.93;5.30;;;;;;;;;;5019144;28;20787;-81
2022/11/18 10:52:52;;;;;;;6.77;3.50;;;;;;;;;;5018761;28;20209;-81
2022/11/18 10:55:21;;;;;;;6.37;3.40;;;;;;;;;;5002912;28;20230;-79
2022/11/18 10:57:47;;;;;;;9.47;4.03;;;;;;;;;;4991316;28;20214;-81
2022/11/18 11:00:33;;;;;;;8.53;3.77;;;;;;;;;;5003018;28;20183;-81
2022/11/18 11:02:58;;;;;;;8.80;5.00;;;;;;;;;;5016393;28;20187;-81
2022/11/18 11:05:24;;;;;;;6.73;3.50;;;;;;;;;;5017216;28;20186;-80
2022/11/18 11:08:02;;;;;;;5.73;3.43;;;;;;;;;;5014980;28;20218;-80
2022/11/18 11:10:28;;;;;;;6.82;3.50;;;;;;;;;;5018488;28;20225;-81
2022/11/18 11:12:58;;;;;;;6.55;3.60;;;;;;;;;;5019001;28;20191;-80
2022/11/18 11:15:23;;;;;;;7.15;3.63;;;;;;;;;;5001506;28;20293;-80
2022/11/18 11:18:40;;;;;;;8.70;4.65;;;;;;;;;;5014330;28;20191;-81
2022/11/18 11:20:35;;;;;;;8.65;3.78;;;;;;;;;;5017970;28;20183;-80
2022/11/18 11:23:00;;;;;;;8.82;4.18;;;;;;;;;;5005113;28;20193;-80
2022/11/18 11:25:42;;;;;;;10.00;4.05;;;;;;;;;;4997235;28;20178;-81
2022/11/18 11:28:13;;;;;;;8.90;4.03;;;;;;;;;;4993560;28;20186;-80
2022/11/18 11:31:02;;;;;;;9.15;4.40;;;;;;;;;;4996397;28;20175;-80
2022/11/18 11:33:30;;;;;;;4.80;3.17;;;;;;;;;;4978070;28;20187;-80
2022/11/18 11:36:14;;;;;;;6.60;3.15;;;;;;;;;;5018758;28;20273;-79
2022/11/18 11:38:39;;;;;;;6.15;3.97;;;;;;;;;;5017308;28;20174;-79
2022/11/18 11:41:20;;;;;;;6.55;4.65;;;;;;;;;;4993264;28;20184;-80
2022/11/18 11:43:48;;;;;;;6.18;3.83;;;;;;;;;;5020448;28;20186;-80
2022/11/18 11:46:16;;;;;;;9.73;4.35;;;;;;;;;;5000301;28;20195;-80
2022/11/18 11:48:55;;;;;;;11.10;4.32;;;;;;;;;;4998691;28;20183;-79
2022/11/18 11:51:23;;;;;;;4.88;3.85;;;;;;;;;;5017403;28;20617;-80
2022/11/18 11:53:56;;;;;;;7.47;4.55;;;;;;;;;;4998878;28;20238;-78
2022/11/18 11:56:39;;;;;;;6.53;4.45;;;;;;;;;;5019844;28;20257;-79
2022/11/18 11:59:07;;;;;;;7.20;5.38;;;;;;;;;;5001652;28;20186;-78
2022/11/18 12:01:37;;;;;;;8.93;4.53;;;;;;;;;;5016058;28;20226;-79
2022/11/18 12:04:21;;;;;;;8.02;4.03;;;;;;;;;;5017587;28;20274;-77
2022/11/18 12:06:49;;;;;;;6.00;4.53;;;;;;;;;;5020655;28;20659;-78
2022/11/18 12:09:20;;;;;;;11.35;4.32;;;;;;;;;;5016242;28;20566;-79
2022/11/18 12:11:50;;;;;;;9.05;5.40;;;;;;;;;;5013026;28;20185;-78
2022/11/18 12:14:29;;;;;;;6.82;4.75;;;;;;;;;;4999858;28;20211;-79
2022/11/18 12:16:59;;;;;;;8.20;4.15;;;;;;;;;;4998233;28;20255;-79
2022/11/18 12:19:25;;;;;;;13.93;6.45;;;;;;;;;;5015483;28;20691;-79
2022/11/18 12:21:51;;;;;;;5.95;4.90;;;;;;;;;;4996353;28;20178;-79
2022/11/18 12:24:16;;;;;;;7.93;5.05;;;;;;;;;;5016055;28;20696;-78
2022/11/18 12:26:42;;;;;;;15.95;5.00;;;;;;;;;;4996466;28;20214;-79
2022/11/18 12:29:28;;;;;;;8.13;4.35;;;;;;;;;;5015656;28;20202;-78
2022/11/18 12:31:53;;;;;;;8.32;4.70;;;;;;;;;;5013694;28;20186;-79
2022/11/18 12:34:25;;;;;;;10.93;5.05;;;;;;;;;;4998985;28;20206;-78
2022/11/18 12:36:51;;;;;;;9.00;4.53;;;;;;;;;;5013211;28;20198;-79
2022/11/18 12:39:22;;;;;;;8.00;5.88;;;;;;;;;;4995160;28;20180;-79
2022/11/18 12:44:45;;;;;;;10.20;6.05;;;;;;;;;;5018430;28;20306;-78
2022/11/18 12:47:14;;;;;;;6.95;6.00;;;;;;;;;;5002277;28;20765;-79
2022/11/18 12:49:43;;;;;;;7.72;5.70;;;;;;;;;;5007266;28;20202;-77
2022/11/18 12:52:28;;;;;;;11.45;5.68;;;;;;;;;;5019811;28;20183;-77
2022/11/18 12:54:54;;;;;;;8.70;6.00;;;;;;;;;;4980655;28;20218;-77
2022/11/18 12:57:21;;;;;;;8.82;5.63;;;;;;;;;;5004563;28;20218;-79
2022/11/18 12:59:46;;;;;;;9.88;5.63;;;;;;;;;;5019874;28;20183;-78
2022/11/18 13:02:15;;;;;;;5.97;5.28;;;;;;;;;;5019188;28;20590;-77
2022/11/18 13:04:40;;;;;;;9.02;6.00;;;;;;;;;;5016218;28;20175;-77
2022/11/18 13:08:11;;;;;;;8.07;5.53;;;;;;;;;;5005120;28;20214;-77
2022/11/18 13:09:55;;;;;;;10.23;5.70;;;;;;;;;;5021327;28;20191;-77
2022/11/18 13:12:20;;;;;;;10.45;7.22;;;;;;;;;;5022272;28;20182;-78
2022/11/18 13:17:53;;;;;;;10.05;5.68;;;;;;;;;;5026051;28;20276;-79
2022/11/18 13:20:21;;;;;;;7.82;5.40;;;;;;;;;;5002799;28;20201;-77
2022/11/18 13:25:38;;;;;;;12.32;6.45;;;;;;;;;;5021496;28;20198;-79
2022/11/18 13:28:03;;;;;;;9.95;6.10;;;;;;;;;;4997852;28;20175;-78
2022/11/18 13:30:29;;;;;;;11.65;5.78;;;;;;;;;;5014644;28;20175;-78
2022/11/18 13:32:56;;;;;;;13.88;8.23;;;;;;;;;;4992776;28;20297;-78
2022/11/18 13:35:22;;;;;;;10.18;6.93;;;;;;;;;;4994579;28;20249;-78
2022/11/18 13:37:50;;;;;;;10.88;6.38;;;;;;;;;;5010916;28;20278;-78
2022/11/18 13:40:19;;;;;;;12.35;7.63;;;;;;;;;;5012202;28;20225;-78
2022/11/18 13:42:44;;;;;;;10.40;7.15;;;;;;;;;;5011831;28;20175;-78
2022/11/18 13:45:11;;;;;;;13.23;8.57;;;;;;;;;;5013047;28;20175;-79
2022/11/18 13:47:39;;;;;;;9.45;6.57;;;;;;;;;;4997369;28;20211;-78
2022/11/18 13:50:11;;;;;;;10.20;7.35;;;;;;;;;;5018856;28;20193;-78
2022/11/18 13:52:36;;;;;;;13.80;7.40;;;;;;;;;;5015201;28;20175;-78
2022/11/18 13:55:06;;;;;;;10.73;6.10;;;;;;;;;;5003525;28;20289;-79
2022/11/18 13:57:33;;;;;;;9.57;6.57;;;;;;;;;;5017701;28;20195;-78
2022/11/18 14:00:00;;;;;;;11.57;7.13;;;;;;;;;;4999284;28;20216;-79
2022/11/18 14:02:25;;;;;;;9.88;6.25;;;;;;;;;;5014223;28;20179;-78
2022/11/18 14:04:53;;;;;;;9.97;6.03;;;;;;;;;;5011189;28;20187;-78
2022/11/18 14:07:32;;;;;;;11.63;6.88;;;;;;;;;;4993453;28;20225;-79
2022/11/18 14:10:02;;;;;;;9.40;6.67;;;;;;;;;;4992949;28;20700;-77
2022/11/18 14:12:31;;;;;;;13.10;7.20;;;;;;;;;;4994518;28;20186;-79
2022/11/18 14:15:31;;;;;;;12.10;7.57;;;;;;;;;;4994977;28;20199;-78
2022/11/18 14:17:58;;;;;;;8.70;6.70;;;;;;;;;;4952233;28;20236;-79
2022/11/18 14:20:24;;;;;;;9.00;6.40;;;;;;;;;;4980740;28;20195;-79
2022/11/18 14:22:51;;;;;;;12.50;6.57;;;;;;;;;;5011520;28;20209;-79
2022/11/18 14:25:17;;;;;;;9.87;6.53;;;;;;;;;;4994251;28;20309;-79
2022/11/18 14:27:43;;;;;;;10.83;6.13;;;;;;;;;;5014564;28;20301;-79
2022/11/18 14:30:27;;;;;;;11.17;7.13;;;;;;;;;;5016035;28;20191;-77
2022/11/18 14:33:11;;;;;;;10.60;6.55;;;;;;;;;;5018265;28;20685;-79
2022/11/18 14:35:37;;;;;;;8.67;5.93;;;;;;;;;;5010145;28;20317;-80
2022/11/18 14:38:12;;;;;;;9.43;5.80;;;;;;;;;;4999490;28;20221;-80
2022/11/18 14:40:38;;;;;;;9.40;6.80;;;;;;;;;;5000990;28;20193;-79
2022/11/18 14:43:03;;;;;;;8.70;6.40;;;;;;;;;;5019341;28;20175;-80
2022/11/18 14:45:28;;;;;;;12.93;6.87;;;;;;;;;;5018324;28;20266;-80
2022/11/18 14:47:53;;;;;;;9.97;6.83;;;;;;;;;;5017704;28;20191;-80
2022/11/18 14:50:18;;;;;;;10.07;7.30;;;;;;;;;;5017952;28;20186;-81
2022/11/18 14:52:44;;;;;;;11.07;7.03;;;;;;;;;;4998953;28;20214;-80
2022/11/18 14:55:09;;;;;;;10.63;6.93;;;;;;;;;;4998599;28;20698;-80
2022/11/18 14:57:34;;;;;;;10.70;6.90;;;;;;;;;;5021193;28;20206;-81
2022/11/18 15:00:00;;;;;;;13.93;7.27;;;;;;;;;;5023441;28;20183;-80
2022/11/18 15:02:25;;;;;;;9.43;6.50;;;;;;;;;;5019608;28;20258;-80
2022/11/18 15:04:51;;;;;;;9.53;6.67;;;;;;;;;;5009291;28;20329;-81
2022/11/18 15:07:17;;;;;;;11.23;7.63;;;;;;;;;;5007859;28;20205;-81
2022/11/18 15:09:42;;;;;;;8.10;6.67;;;;;;;;;;5021519;28;20167;-78